createdAt,value
2022-08-06T00:02:35.895Z,101329.88
2022-08-06T00:06:00.796Z,101333.50
2022-08-06T00:09:24.744Z,101331.84
2022-08-06T00:12:49.929Z,101331.91
2022-08-06T00:16:36.249Z,101328.88
2022-08-06T00:19:58.320Z,101318.09
2022-08-06T00:23:25.018Z,101304.88
2022-08-06T00:26:51.549Z,101283.88
2022-08-06T00:30:30.718Z,101292.81
2022-08-06T00:33:59.802Z,101286.97
2022-08-06T00:37:28.965Z,101276.22
2022-08-06T00:41:10.744Z,101255.41
2022-08-06T00:44:37.791Z,101240.50
2022-08-06T00:48:06.796Z,101247.03
2022-08-06T00:51:50.864Z,101230.44
2022-08-06T00:55:17.562Z,101236.56
2022-08-06T00:58:42.780Z,101235.63
2022-08-06T01:02:10.159Z,101201.63
2022-08-06T01:06:52.729Z,101184.09
2022-08-06T01:09:19.750Z,101171.75
2022-08-06T01:12:43.810Z,101166.56
2022-08-06T01:16:39.027Z,101181.03
2022-08-06T01:21:58.798Z,101181.47
2022-08-06T01:23:58.748Z,101184.44
2022-08-06T01:27:46.812Z,101182.28
2022-08-06T01:31:20.784Z,101176.16
2022-08-06T01:35:05.784Z,101169.31
2022-08-06T01:38:36.771Z,101161.84
2022-08-06T01:42:09.819Z,101155.94
2022-08-06T01:45:54.842Z,101159.06
2022-08-06T01:49:26.503Z,101145.72
2022-08-06T01:53:00.296Z,101144.38
2022-08-06T01:56:31.191Z,101127.56
2022-08-06T02:00:10.780Z,101132.78
2022-08-06T02:03:53.162Z,101119.03
2022-08-06T02:08:37.567Z,101116.97
2022-08-06T02:12:01.368Z,101107.41
2022-08-06T02:14:58.783Z,101100.94
2022-08-06T02:18:34.146Z,101100.84
2022-08-06T02:22:01.809Z,101097.78
2022-08-06T02:25:34.408Z,101108.13
2022-08-06T02:28:58.910Z,101083.72
2022-08-06T02:32:25.820Z,101085.31
2022-08-06T02:36:26.371Z,101079.31
2022-08-06T02:40:01.528Z,101077.16
2022-08-06T02:43:33.311Z,101057.28
2022-08-06T02:47:04.755Z,101066.09
2022-08-06T02:50:40.816Z,101054.84
2022-08-06T02:54:25.075Z,101047.94
2022-08-06T02:57:58.202Z,101035.97
2022-08-06T03:01:43.131Z,101043.28
2022-08-06T03:05:10.843Z,101031.44
2022-08-06T03:08:38.784Z,101030.31
2022-08-06T03:12:02.849Z,101039.19
2022-08-06T03:15:39.227Z,101024.34
2022-08-06T03:19:55.005Z,101026.44
2022-08-06T03:22:55.775Z,101027.56
2022-08-06T03:26:20.869Z,101024.84
2022-08-06T03:29:46.236Z,101023.22
2022-08-06T03:33:29.926Z,101029.69
2022-08-06T03:36:56.825Z,101021.72
2022-08-06T03:40:21.846Z,101003.31
2022-08-06T03:44:03.150Z,101005.34
2022-08-06T03:47:49.203Z,101009.19
2022-08-06T03:51:51.929Z,101009.38
2022-08-06T03:55:22.675Z,101016.06
2022-08-06T03:58:48.815Z,100989.44
2022-08-06T04:02:24.768Z,101011.22
2022-08-06T04:05:57.947Z,101002.47
2022-08-06T04:09:33.890Z,101011.22
2022-08-06T04:14:01.477Z,101009.63
2022-08-06T04:16:52.848Z,100994.91
2022-08-06T04:20:41.044Z,100986.50
2022-08-06T04:23:57.823Z,100991.44
2022-08-06T04:27:23.858Z,101009.78
2022-08-06T04:30:54.816Z,101003.06
2022-08-06T04:34:18.814Z,100999.28
2022-08-06T04:37:44.839Z,100990.22
2022-08-06T04:41:16.430Z,100989.81
2022-08-06T04:44:44.365Z,100979.47
2022-08-06T04:48:09.853Z,100967.91
2022-08-06T04:52:45.597Z,100957.50
2022-08-06T04:55:34.744Z,100962.13
2022-08-06T04:59:00.921Z,100957.22
2022-08-06T05:02:26.016Z,100941.91
2022-08-06T05:06:31.852Z,100940.56
2022-08-06T05:09:58.571Z,100953.56
2022-08-06T05:13:35.539Z,100962.56
2022-08-06T05:17:08.357Z,100955.44
2022-08-06T05:20:34.923Z,100945.06
2022-08-06T05:24:06.860Z,100938.94
2022-08-06T05:27:54.792Z,100945.97
2022-08-06T05:31:15.104Z,100943.22
2022-08-06T05:34:38.825Z,100938.00
2022-08-06T05:38:21.101Z,100937.78
2022-08-06T05:41:59.882Z,100917.59
2022-08-06T05:45:28.841Z,100920.16
2022-08-06T05:49:31.409Z,100915.81
2022-08-06T05:53:04.843Z,100925.28
2022-08-06T05:56:38.723Z,100926.34
2022-08-06T06:00:02.468Z,100934.81
2022-08-06T06:03:33.508Z,100928.25
2022-08-06T06:06:59.881Z,100937.94
2022-08-06T06:10:28.963Z,100932.69
2022-08-06T06:13:59.985Z,100947.50
2022-08-06T06:18:01.957Z,100939.97
2022-08-06T06:21:53.891Z,100935.22
2022-08-06T06:25:41.916Z,100937.53
2022-08-06T06:29:33.858Z,100929.13
2022-08-06T06:33:16.878Z,100953.09
2022-08-06T06:37:12.912Z,100931.00
2022-08-06T06:41:19.881Z,100918.94
2022-08-06T06:45:04.316Z,100913.47
2022-08-06T06:48:56.919Z,100917.81
2022-08-06T06:52:56.889Z,100906.13
2022-08-06T06:56:22.059Z,100894.81
2022-08-06T07:00:01.358Z,100882.63
2022-08-06T07:03:42.874Z,100892.13
2022-08-06T07:07:15.101Z,100880.16
2022-08-06T07:10:48.068Z,100893.84
2022-08-06T07:14:13.871Z,100905.88
2022-08-06T07:17:46.350Z,100908.81
2022-08-06T07:21:12.910Z,100918.66
2022-08-06T07:24:45.916Z,100924.78
2022-08-06T07:28:13.941Z,100920.09
2022-08-06T07:31:45.899Z,100914.97
2022-08-06T07:35:12.478Z,100895.56
2022-08-06T07:38:38.454Z,100896.63
2022-08-06T07:42:10.873Z,100872.03
2022-08-06T07:45:51.064Z,100874.41
2022-08-06T07:49:20.920Z,100861.16
2022-08-06T07:52:44.934Z,100867.09
2022-08-06T07:56:11.637Z,100852.44
2022-08-06T07:59:35.861Z,100857.69
2022-08-06T08:03:43.594Z,100876.66
2022-08-06T08:06:55.465Z,100872.34
2022-08-06T08:10:15.911Z,100880.34
2022-08-06T08:13:44.495Z,100875.19
2022-08-06T08:17:08.905Z,100885.63
2022-08-06T08:20:36.458Z,100856.69
2022-08-06T08:24:01.980Z,100866.44
2022-08-06T08:27:27.085Z,100866.09
2022-08-06T08:30:54.982Z,100853.75
2022-08-06T08:34:20.941Z,100857.81
2022-08-06T08:37:51.959Z,100872.66
2022-08-06T08:41:49.607Z,100877.00
2022-08-06T08:45:15.797Z,100860.13
2022-08-06T08:48:41.961Z,100874.72
2022-08-06T08:52:11.400Z,100863.41
2022-08-06T08:57:10.617Z,100848.47
2022-08-06T08:59:59.865Z,100838.50
2022-08-06T09:03:12.730Z,100846.16
2022-08-06T09:06:39.859Z,100829.09
2022-08-06T09:10:04.964Z,100809.84
2022-08-06T09:13:31.976Z,100849.16
2022-08-06T09:17:18.116Z,100807.88
2022-08-06T09:20:59.952Z,100807.06
2022-08-06T09:24:24.787Z,100816.38
2022-08-06T09:27:59.312Z,100813.28
2022-08-06T09:31:34.408Z,100800.19
2022-08-06T09:35:17.062Z,100791.63
2022-08-06T09:38:48.015Z,100785.59
2022-08-06T09:42:12.935Z,100791.78
2022-08-06T09:45:42.250Z,100779.56
2022-08-06T09:49:48.916Z,100760.69
2022-08-06T09:53:20.857Z,100747.84
2022-08-06T09:56:45.963Z,100733.41
2022-08-06T10:00:15.336Z,100724.84
2022-08-06T10:04:02.510Z,100706.94
2022-08-06T10:07:25.191Z,100750.31
2022-08-06T10:11:05.352Z,100750.25
2022-08-06T10:14:42.004Z,100746.31
2022-08-06T10:18:05.983Z,100744.38
2022-08-06T10:21:48.926Z,100748.94
2022-08-06T10:25:24.787Z,100732.09
2022-08-06T10:28:55.916Z,100748.81
2022-08-06T10:32:21.015Z,100756.56
2022-08-06T10:35:54.928Z,100733.84
2022-08-06T10:40:09.319Z,100769.22
2022-08-06T10:43:06.953Z,100791.97
2022-08-06T10:46:31.985Z,100772.50
2022-08-06T10:50:30.362Z,100775.69
2022-08-06T10:54:00.557Z,100773.47
2022-08-06T10:57:34.063Z,100755.38
2022-08-06T11:01:00.973Z,100766.22
2022-08-06T11:04:32.942Z,100762.16
2022-08-06T11:08:56.308Z,100762.91
2022-08-06T11:12:36.593Z,100786.81
2022-08-06T11:15:53.999Z,100785.38
2022-08-06T11:19:28.258Z,100768.28
2022-08-06T11:22:59.543Z,100771.38
2022-08-06T11:26:25.957Z,100756.69
2022-08-06T11:30:26.241Z,100741.59
2022-08-06T11:33:52.940Z,100748.78
2022-08-06T11:38:00.117Z,100749.22
2022-08-06T11:41:50.904Z,100745.69
2022-08-06T11:46:20.450Z,100743.13
2022-08-06T11:49:18.242Z,100743.44
2022-08-06T11:52:48.946Z,100736.91
2022-08-06T11:56:25.529Z,100714.19
2022-08-06T12:00:23.021Z,100692.47
2022-08-06T12:03:55.006Z,100713.38
2022-08-06T12:07:38.189Z,100736.53
2022-08-06T12:11:39.049Z,100742.91
2022-08-06T12:14:56.631Z,100742.22
2022-08-06T12:18:19.322Z,100724.34
2022-08-06T12:21:49.203Z,100716.94
2022-08-06T12:25:15.124Z,100716.13
2022-08-06T12:28:39.985Z,100722.16
2022-08-06T12:32:04.046Z,100709.72
2022-08-06T12:35:31.021Z,100695.34
2022-08-06T12:38:58.541Z,100685.81
2022-08-06T12:42:53.993Z,100681.72
2022-08-06T12:46:24.009Z,100666.09
2022-08-06T12:49:53.019Z,100656.22
2022-08-06T12:53:20.755Z,100646.50
2022-08-06T12:56:47.984Z,100626.22
2022-08-06T13:00:14.858Z,100635.72
2022-08-06T13:03:39.994Z,100634.03
2022-08-06T13:07:05.035Z,100652.59
2022-08-06T13:10:36.262Z,100650.41
2022-08-06T13:14:17.778Z,100642.47
2022-08-06T13:17:59.817Z,100611.59
2022-08-06T13:21:58.111Z,100623.00
2022-08-06T13:25:48.199Z,100610.91
2022-08-06T13:30:32.823Z,100622.00
2022-08-06T13:33:38.597Z,100638.28
2022-08-06T13:37:15.865Z,100627.59
2022-08-06T13:41:03.719Z,100563.28
2022-08-06T13:45:03.039Z,100536.06
2022-08-06T13:48:47.253Z,100534.72
2022-08-06T13:52:13.109Z,100549.81
2022-08-06T13:56:01.964Z,100540.72
2022-08-06T13:59:40.035Z,100590.97
2022-08-06T14:03:13.906Z,100591.56
2022-08-06T14:06:41.263Z,100580.16
2022-08-06T14:10:08.770Z,100577.00
2022-08-06T14:13:34.061Z,100558.09
2022-08-06T14:17:00.069Z,100544.59
2022-08-06T14:20:25.893Z,100542.44
2022-08-06T14:24:00.288Z,100532.91
2022-08-06T14:27:26.229Z,100566.97
2022-08-06T14:30:55.925Z,100571.66
2022-08-06T14:34:20.098Z,100569.28
2022-08-06T14:38:02.038Z,100581.47
2022-08-06T14:41:52.225Z,100577.69
2022-08-06T14:45:21.689Z,100573.38
2022-08-06T14:48:48.749Z,100560.91
2022-08-06T14:52:19.174Z,100532.78
2022-08-06T14:56:07.591Z,100514.91
2022-08-06T14:59:48.285Z,100495.19
2022-08-06T15:03:13.579Z,100512.50
2022-08-06T15:06:53.254Z,100501.72
2022-08-06T15:10:27.536Z,100493.56
2022-08-06T15:13:53.854Z,100463.84
2022-08-06T15:17:49.111Z,100483.56
2022-08-06T15:21:03.225Z,100469.81
2022-08-06T15:24:28.094Z,100487.06
2022-08-06T15:27:53.122Z,100504.97
2022-08-06T15:31:17.035Z,100497.16
2022-08-06T15:34:44.617Z,100502.81
2022-08-06T15:38:16.146Z,100510.38
2022-08-06T15:41:43.201Z,100507.41
2022-08-06T15:45:49.513Z,100488.63
2022-08-06T15:48:55.934Z,100501.84
2022-08-06T15:52:20.040Z,100490.72
2022-08-06T15:55:45.106Z,100494.53
2022-08-06T15:59:12.456Z,100500.94
2022-08-06T16:02:42.464Z,100473.09
2022-08-06T16:06:23.638Z,100453.59
2022-08-06T16:10:03.170Z,100472.22
2022-08-06T16:13:36.045Z,100482.84
2022-08-06T16:17:01.131Z,100486.06
2022-08-06T16:20:31.971Z,100463.66
2022-08-06T16:24:03.581Z,100479.28
2022-08-06T16:27:37.649Z,100492.53
2022-08-06T16:31:11.190Z,100462.81
2022-08-06T16:34:39.079Z,100485.50
2022-08-06T16:38:12.324Z,100475.53
2022-08-06T16:41:58.592Z,100468.72
2022-08-06T16:45:24.149Z,100483.09
2022-08-06T16:49:01.125Z,100490.38
2022-08-06T16:52:42.682Z,100475.00
2022-08-06T16:56:09.071Z,100486.63
2022-08-06T16:59:42.838Z,100491.25
2022-08-06T17:03:07.991Z,100471.47
2022-08-06T17:06:34.279Z,100472.09
2022-08-06T17:10:00.515Z,100462.03
2022-08-06T17:13:39.452Z,100459.13
2022-08-06T17:17:10.392Z,100452.94
2022-08-06T17:20:37.162Z,100451.59
2022-08-06T17:24:05.115Z,100454.13
2022-08-06T17:27:44.798Z,100463.38
2022-08-06T17:34:53.120Z,100463.38
2022-08-06T17:38:17.157Z,100462.03
2022-08-06T17:41:46.790Z,100452.22
2022-08-06T17:45:13.158Z,100463.88
2022-08-06T17:48:39.112Z,100445.44
2022-08-06T17:52:03.194Z,100511.78
2022-08-06T17:55:37.102Z,100514.56
2022-08-06T17:59:16.431Z,100521.75
2022-08-06T18:02:42.132Z,100518.06
2022-08-06T18:06:16.706Z,100521.56
2022-08-06T18:10:11.388Z,100514.25
2022-08-06T18:13:53.142Z,100512.59
2022-08-06T18:17:17.230Z,100517.47
2022-08-06T18:20:43.119Z,100533.09
2022-08-06T18:24:03.181Z,100551.50
2022-08-06T18:28:03.767Z,100562.50
2022-08-06T18:31:14.182Z,100578.06
2022-08-06T18:34:52.594Z,100575.03
2022-08-06T18:38:16.187Z,100561.75
2022-08-06T18:41:40.169Z,100561.75
2022-08-06T18:45:04.173Z,100582.84
2022-08-06T18:48:29.260Z,100567.41
2022-08-06T18:51:53.185Z,100596.06
2022-08-06T18:55:39.464Z,100608.50
2022-08-06T18:59:22.708Z,100591.97
2022-08-06T19:02:49.010Z,100580.59
2022-08-06T19:06:14.254Z,100575.88
2022-08-06T19:09:41.159Z,100567.66
2022-08-06T19:13:08.671Z,100578.25
2022-08-06T19:16:38.161Z,100592.78
2022-08-06T19:20:19.662Z,100586.97
2022-08-06T19:24:02.416Z,100598.66
2022-08-06T19:28:29.836Z,100616.72
2022-08-06T19:31:23.259Z,100613.19
2022-08-06T19:34:50.132Z,100599.06
2022-08-06T19:38:16.218Z,100605.78
2022-08-06T19:42:00.461Z,100596.38
2022-08-06T19:46:30.044Z,100591.03
2022-08-06T19:49:09.127Z,100600.59
2022-08-06T19:52:38.242Z,100587.25
2022-08-06T19:56:06.508Z,100609.47
2022-08-06T20:00:51.662Z,100630.88
2022-08-06T20:03:16.243Z,100624.28
2022-08-06T20:07:01.596Z,100622.00
2022-08-06T20:10:36.115Z,100636.50
2022-08-06T20:14:01.161Z,100625.59
2022-08-06T20:17:29.574Z,100640.84
2022-08-06T20:21:00.078Z,100622.19
2022-08-06T20:24:25.203Z,100652.25
2022-08-06T20:29:09.719Z,100651.69
2022-08-06T20:31:36.209Z,100660.72
2022-08-06T20:35:03.266Z,100655.84
2022-08-06T20:38:33.408Z,100681.63
2022-08-06T20:42:08.266Z,100663.72
2022-08-06T20:45:56.926Z,100680.00
2022-08-06T20:49:29.431Z,100691.34
2022-08-06T20:53:05.281Z,100695.31
2022-08-06T20:56:34.161Z,100700.41
2022-08-06T20:59:59.656Z,100695.59
2022-08-06T21:05:11.053Z,100716.94
2022-08-06T21:07:08.276Z,100717.00
2022-08-06T21:10:39.211Z,100726.78
2022-08-06T21:14:07.926Z,100738.44
2022-08-06T21:17:35.964Z,100746.66
2022-08-06T21:21:04.197Z,100747.69
2022-08-06T21:24:28.208Z,100755.66
2022-08-06T21:27:58.544Z,100753.97
2022-08-06T21:31:24.565Z,100740.53
2022-08-06T21:34:49.225Z,100721.38
2022-08-06T21:38:26.015Z,100731.03
2022-08-06T21:41:58.789Z,100739.16
2022-08-06T21:45:50.401Z,100701.88
2022-08-06T21:49:15.205Z,100720.31
2022-08-06T21:52:45.177Z,100725.19
2022-08-06T21:56:37.362Z,100738.72
2022-08-06T21:59:54.192Z,100740.34
2022-08-06T22:04:36.663Z,100746.63
2022-08-06T22:07:07.252Z,100751.94
2022-08-06T22:10:32.815Z,100738.81
2022-08-06T22:14:01.084Z,100724.81
2022-08-06T22:17:59.791Z,100722.03
2022-08-06T22:21:14.366Z,100710.25
2022-08-06T22:24:38.222Z,100690.25
2022-08-06T22:28:03.207Z,100709.75
2022-08-06T22:31:55.852Z,100712.19
2022-08-06T22:35:12.256Z,100715.84
2022-08-06T22:38:36.280Z,100712.00
2022-08-06T22:42:06.410Z,100711.00
2022-08-06T22:46:00.284Z,100723.50
2022-08-06T22:49:16.206Z,100727.53
2022-08-06T22:53:03.134Z,100718.34
2022-08-06T22:56:28.395Z,100732.25
2022-08-06T23:00:07.024Z,100734.72
2022-08-06T23:03:39.058Z,100757.84
2022-08-06T23:07:09.358Z,100759.59
2022-08-06T23:10:35.233Z,100740.94
2022-08-06T23:14:00.647Z,100743.75
2022-08-06T23:17:25.480Z,100732.81
2022-08-06T23:21:24.237Z,100737.41
2022-08-06T23:25:03.560Z,100739.31
2022-08-06T23:28:35.230Z,100756.16
2022-08-06T23:32:02.310Z,100752.44
2022-08-06T23:35:36.542Z,100724.78
2022-08-06T23:39:02.358Z,100716.41
2022-08-06T23:42:27.259Z,100731.34
2022-08-06T23:45:52.247Z,100741.06
2022-08-06T23:49:17.221Z,100730.50
2022-08-06T23:52:41.955Z,100725.63
2022-08-06T23:56:15.281Z,100722.63
2022-08-06T23:59:44.870Z,100705.81
